sensor_id;sensor_type;location;lat;lon;timestamp;pressure;altitude;pressure_sealevel;temperature
69415;BMP280;56608;43.530;-5.652;2023-04-06T00:00:33;101843.50;;;10.75
69415;BMP280;56608;43.530;-5.652;2023-04-06T00:01:34;101834.28;;;10.72
69415;BMP280;56608;43.530;-5.652;2023-04-06T00:02:36;101839.97;;;10.78
69415;BMP280;56608;43.530;-5.652;2023-04-06T00:03:37;101834.41;;;10.61
69415;BMP280;56608;43.530;-5.652;2023-04-06T00:04:39;101834.00;;;10.66
69415;BMP280;56608;43.530;-5.652;2023-04-06T00:05:41;101831.69;;;10.68
69415;BMP280;56608;43.530;-5.652;2023-04-06T00:06:42;101830.56;;;10.62
69415;BMP280;56608;43.530;-5.652;2023-04-06T00:07:44;101833.66;;;10.61
69415;BMP280;56608;43.530;-5.652;2023-04-06T00:08:44;101825.47;;;10.41
69415;BMP280;56608;43.530;-5.652;2023-04-06T00:09:46;101824.66;;;10.44
69415;BMP280;56608;43.530;-5.652;2023-04-06T00:10:48;101819.22;;;10.51
69415;BMP280;56608;43.530;-5.652;2023-04-06T00:11:49;101821.78;;;10.58
69415;BMP280;56608;43.530;-5.652;2023-04-06T00:12:50;101819.87;;;10.59
69415;BMP280;56608;43.530;-5.652;2023-04-06T00:13:52;101823.63;;;10.65
69415;BMP280;56608;43.530;-5.652;2023-04-06T00:14:53;101817.31;;;10.48
69415;BMP280;56608;43.530;-5.652;2023-04-06T00:15:55;101816.66;;;10.41
69415;BMP280;56608;43.530;-5.652;2023-04-06T00:16:56;101822.41;;;10.39
69415;BMP280;56608;43.530;-5.652;2023-04-06T00:17:57;101823.28;;;10.29
69415;BMP280;56608;43.530;-5.652;2023-04-06T00:18:58;101813.41;;;10.22
69415;BMP280;56608;43.530;-5.652;2023-04-06T00:20:00;101810.31;;;10.24
69415;BMP280;56608;43.530;-5.652;2023-04-06T00:21:01;101815.12;;;10.36
69415;BMP280;56608;43.530;-5.652;2023-04-06T00:22:02;101810.50;;;10.40
69415;BMP280;56608;43.530;-5.652;2023-04-06T00:23:04;101802.47;;;10.36
69415;BMP280;56608;43.530;-5.652;2023-04-06T00:24:05;101799.37;;;10.38
69415;BMP280;56608;43.530;-5.652;2023-04-06T00:25:07;101792.47;;;10.41
69415;BMP280;56608;43.530;-5.652;2023-04-06T00:26:09;101793.13;;;10.48
69415;BMP280;56608;43.530;-5.652;2023-04-06T00:27:11;101797.72;;;10.51
69415;BMP280;56608;43.530;-5.652;2023-04-06T00:28:12;101798.00;;;10.57
69415;BMP280;56608;43.530;-5.652;2023-04-06T00:29:14;101796.03;;;10.61
69415;BMP280;56608;43.530;-5.652;2023-04-06T00:30:16;101799.47;;;10.61
69415;BMP280;56608;43.530;-5.652;2023-04-06T00:31:17;101793.69;;;10.63
69415;BMP280;56608;43.530;-5.652;2023-04-06T00:32:19;101792.84;;;10.69
69415;BMP280;56608;43.530;-5.652;2023-04-06T00:33:21;101801.75;;;10.66
69415;BMP280;56608;43.530;-5.652;2023-04-06T00:34:22;101791.38;;;10.65
69415;BMP280;56608;43.530;-5.652;2023-04-06T00:35:24;101794.44;;;10.67
69415;BMP280;56608;43.530;-5.652;2023-04-06T00:36:25;101803.31;;;10.60
69415;BMP280;56608;43.530;-5.652;2023-04-06T00:37:26;101796.78;;;10.61
69415;BMP280;56608;43.530;-5.652;2023-04-06T00:38:28;101798.38;;;10.59
69415;BMP280;56608;43.530;-5.652;2023-04-06T00:39:29;101794.44;;;10.67
69415;BMP280;56608;43.530;-5.652;2023-04-06T00:40:31;101785.97;;;10.68
69415;BMP280;56608;43.530;-5.652;2023-04-06T00:41:33;101790.13;;;10.73
69415;BMP280;56608;43.530;-5.652;2023-04-06T00:42:35;101791.78;;;10.63
69415;BMP280;56608;43.530;-5.652;2023-04-06T00:43:36;101796.88;;;10.54
69415;BMP280;56608;43.530;-5.652;2023-04-06T00:44:38;101790.44;;;10.48
69415;BMP280;56608;43.530;-5.652;2023-04-06T00:45:41;101792.41;;;10.44
69415;BMP280;56608;43.530;-5.652;2023-04-06T00:46:42;101795.53;;;10.43
69415;BMP280;56608;43.530;-5.652;2023-04-06T00:47:44;101794.00;;;10.38
69415;BMP280;56608;43.530;-5.652;2023-04-06T00:48:45;101786.19;;;10.51
69415;BMP280;56608;43.530;-5.652;2023-04-06T00:49:47;101793.41;;;10.57
69415;BMP280;56608;43.530;-5.652;2023-04-06T00:50:49;101779.84;;;10.64
69415;BMP280;56608;43.530;-5.652;2023-04-06T00:51:50;101781.41;;;10.62
69415;BMP280;56608;43.530;-5.652;2023-04-06T00:52:52;101787.56;;;10.66
69415;BMP280;56608;43.530;-5.652;2023-04-06T00:53:54;101787.47;;;10.69
69415;BMP280;56608;43.530;-5.652;2023-04-06T00:54:55;101781.31;;;10.73
69415;BMP280;56608;43.530;-5.652;2023-04-06T00:55:57;101777.09;;;10.71
69415;BMP280;56608;43.530;-5.652;2023-04-06T00:56:58;101782.19;;;10.66
69415;BMP280;56608;43.530;-5.652;2023-04-06T00:58:00;101780.72;;;10.58
69415;BMP280;56608;43.530;-5.652;2023-04-06T00:59:02;101784.34;;;10.44
69415;BMP280;56608;43.530;-5.652;2023-04-06T01:00:04;101784.78;;;10.39
69415;BMP280;56608;43.530;-5.652;2023-04-06T01:01:06;101781.06;;;10.29
69415;BMP280;56608;43.530;-5.652;2023-04-06T01:02:08;101784.22;;;10.24
69415;BMP280;56608;43.530;-5.652;2023-04-06T01:03:09;101773.66;;;10.07
69415;BMP280;56608;43.530;-5.652;2023-04-06T01:04:11;101779.78;;;10.07
69415;BMP280;56608;43.530;-5.652;2023-04-06T01:05:12;101785.09;;;10.11
69415;BMP280;56608;43.530;-5.652;2023-04-06T01:06:14;101773.66;;;10.07
69415;BMP280;56608;43.530;-5.652;2023-04-06T01:07:15;101770.91;;;10.14
69415;BMP280;56608;43.530;-5.652;2023-04-06T01:08:17;101772.50;;;10.08
69415;BMP280;56608;43.530;-5.652;2023-04-06T01:09:18;101779.03;;;10.07
69415;BMP280;56608;43.530;-5.652;2023-04-06T01:10:27;101781.34;;;10.05
69415;BMP280;56608;43.530;-5.652;2023-04-06T01:11:29;101785.97;;;10.04
69415;BMP280;56608;43.530;-5.652;2023-04-06T01:12:31;101778.66;;;10.05
69415;BMP280;56608;43.530;-5.652;2023-04-06T01:13:31;101784.44;;;10.03
69415;BMP280;56608;43.530;-5.652;2023-04-06T01:14:33;101782.50;;;10.04
69415;BMP280;56608;43.530;-5.652;2023-04-06T01:15:35;101785.94;;;10.08
69415;BMP280;56608;43.530;-5.652;2023-04-06T01:16:40;101788.63;;;10.08
69415;BMP280;56608;43.530;-5.652;2023-04-06T01:17:41;101782.87;;;10.06
69415;BMP280;56608;43.530;-5.652;2023-04-06T01:18:43;101795.91;;;10.07
69415;BMP280;56608;43.530;-5.652;2023-04-06T01:19:44;101791.31;;;10.08
69415;BMP280;56608;43.530;-5.652;2023-04-06T01:20:46;101801.59;;;10.13
69415;BMP280;56608;43.530;-5.652;2023-04-06T01:21:48;101789.72;;;10.14
69415;BMP280;56608;43.530;-5.652;2023-04-06T01:22:51;101799.66;;;10.17
69415;BMP280;56608;43.530;-5.652;2023-04-06T01:23:52;101793.84;;;10.22
69415;BMP280;56608;43.530;-5.652;2023-04-06T01:24:53;101802.63;;;10.26
69415;BMP280;56608;43.530;-5.652;2023-04-06T01:25:54;101804.88;;;10.27
69415;BMP280;56608;43.530;-5.652;2023-04-06T01:26:56;101803.31;;;10.30
69415;BMP280;56608;43.530;-5.652;2023-04-06T01:27:56;101807.16;;;10.29
69415;BMP280;56608;43.530;-5.652;2023-04-06T01:28:59;101804.09;;;10.30
69415;BMP280;56608;43.530;-5.652;2023-04-06T01:30:00;101798.78;;;10.27
69415;BMP280;56608;43.530;-5.652;2023-04-06T01:31:02;101799.50;;;10.27
69415;BMP280;56608;43.530;-5.652;2023-04-06T01:32:03;101798.78;;;10.27
69415;BMP280;56608;43.530;-5.652;2023-04-06T01:33:05;101788.06;;;10.23
69415;BMP280;56608;43.530;-5.652;2023-04-06T01:34:07;101792.31;;;10.21
69415;BMP280;56608;43.530;-5.652;2023-04-06T01:35:08;101789.69;;;10.17
69415;BMP280;56608;43.530;-5.652;2023-04-06T01:36:10;101791.31;;;10.08
69415;BMP280;56608;43.530;-5.652;2023-04-06T01:37:11;101786.03;;;10.01
69415;BMP280;56608;43.530;-5.652;2023-04-06T01:38:12;101788.34;;;9.95
69415;BMP280;56608;43.530;-5.652;2023-04-06T01:39:14;101787.97;;;9.96
69415;BMP280;56608;43.530;-5.652;2023-04-06T01:40:15;101790.91;;;10.09
69415;BMP280;56608;43.530;-5.652;2023-04-06T01:41:17;101792.38;;;10.17
69415;BMP280;56608;43.530;-5.652;2023-04-06T01:42:18;101783.91;;;10.19
69415;BMP280;56608;43.530;-5.652;2023-04-06T01:43:20;101791.91;;;10.22
69415;BMP280;56608;43.530;-5.652;2023-04-06T01:44:21;101793.13;;;10.18
69415;BMP280;56608;43.530;-5.652;2023-04-06T01:45:23;101786.63;;;10.12
69415;BMP280;56608;43.530;-5.652;2023-04-06T01:46:24;101786.63;;;10.12
69415;BMP280;56608;43.530;-5.652;2023-04-06T01:47:26;101786.53;;;9.88
69415;BMP280;56608;43.530;-5.652;2023-04-06T01:48:26;101784.22;;;9.90
69415;BMP280;56608;43.530;-5.652;2023-04-06T01:49:28;101784.50;;;9.99
69415;BMP280;56608;43.530;-5.652;2023-04-06T01:50:29;101787.59;;;9.94
69415;BMP280;56608;43.530;-5.652;2023-04-06T01:51:31;101789.22;;;9.88
69415;BMP280;56608;43.530;-5.652;2023-04-06T01:52:33;101788.47;;;9.84
69415;BMP280;56608;43.530;-5.652;2023-04-06T01:53:33;101785.03;;;9.84
69415;BMP280;56608;43.530;-5.652;2023-04-06T01:54:35;101785.06;;;9.80
69415;BMP280;56608;43.530;-5.652;2023-04-06T01:55:37;101775.56;;;9.72
69415;BMP280;56608;43.530;-5.652;2023-04-06T01:56:37;101787.81;;;9.73
69415;BMP280;56608;43.530;-5.652;2023-04-06T01:57:39;101784.84;;;9.60
69415;BMP280;56608;43.530;-5.652;2023-04-06T01:58:41;101783.31;;;9.63
69415;BMP280;56608;43.530;-5.652;2023-04-06T01:59:42;101783.63;;;9.69
69415;BMP280;56608;43.530;-5.652;2023-04-06T02:00:44;101778.66;;;9.67
69415;BMP280;56608;43.530;-5.652;2023-04-06T02:01:45;101776.84;;;9.57
69415;BMP280;56608;43.530;-5.652;2023-04-06T02:02:46;101781.03;;;9.58
69415;BMP280;56608;43.530;-5.652;2023-04-06T02:03:47;101778.38;;;9.54
69415;BMP280;56608;43.530;-5.652;2023-04-06T02:04:49;101776.53;;;9.48
69415;BMP280;56608;43.530;-5.652;2023-04-06T02:05:50;101771.88;;;9.55
69415;BMP280;56608;43.530;-5.652;2023-04-06T02:06:52;101774.88;;;9.61
69415;BMP280;56608;43.530;-5.652;2023-04-06T02:07:53;101783.31;;;9.59
69415;BMP280;56608;43.530;-5.652;2023-04-06T02:08:55;101773.41;;;9.53
69415;BMP280;56608;43.530;-5.652;2023-04-06T02:09:55;101771.53;;;9.50
69415;BMP280;56608;43.530;-5.652;2023-04-06T02:10:57;101772.34;;;9.47
69415;BMP280;56608;43.530;-5.652;2023-04-06T02:11:58;101771.81;;;9.59
69415;BMP280;56608;43.530;-5.652;2023-04-06T02:13:01;101758.78;;;9.65
69415;BMP280;56608;43.530;-5.652;2023-04-06T02:14:03;101757.94;;;9.71
69415;BMP280;56608;43.530;-5.652;2023-04-06T02:15:04;101757.94;;;9.71
69415;BMP280;56608;43.530;-5.652;2023-04-06T02:16:06;101751.06;;;9.67
69415;BMP280;56608;43.530;-5.652;2023-04-06T02:17:07;101746.47;;;9.67
69415;BMP280;56608;43.530;-5.652;2023-04-06T02:18:09;101750.72;;;9.65
69415;BMP280;56608;43.530;-5.652;2023-04-06T02:19:11;101749.28;;;9.53
69415;BMP280;56608;43.530;-5.652;2023-04-06T02:20:12;101755.09;;;9.44
69415;BMP280;56608;43.530;-5.652;2023-04-06T02:21:13;101750.56;;;9.38
69415;BMP280;56608;43.530;-5.652;2023-04-06T02:22:15;101750.12;;;9.43
69415;BMP280;56608;43.530;-5.652;2023-04-06T02:23:16;101747.50;;;9.39
69415;BMP280;56608;43.530;-5.652;2023-04-06T02:24:17;101749.50;;;9.24
69415;BMP280;56608;43.530;-5.652;2023-04-06T02:25:19;101744.53;;;9.23
69415;BMP280;56608;43.530;-5.652;2023-04-06T02:26:20;101744.94;;;9.21
69415;BMP280;56608;43.530;-5.652;2023-04-06T02:27:22;101736.84;;;9.28
69415;BMP280;56608;43.530;-5.652;2023-04-06T02:28:23;101738.31;;;9.37
69415;BMP280;56608;43.530;-5.652;2023-04-06T02:29:25;101741.47;;;9.24
69415;BMP280;56608;43.530;-5.652;2023-04-06T02:30:25;101738.41;;;9.22
69415;BMP280;56608;43.530;-5.652;2023-04-06T02:31:27;101727.75;;;9.15
69415;BMP280;56608;43.530;-5.652;2023-04-06T02:32:29;101730.44;;;9.15
69415;BMP280;56608;43.530;-5.652;2023-04-06T02:33:29;101728.53;;;9.12
69415;BMP280;56608;43.530;-5.652;2023-04-06T02:34:31;101727.75;;;9.15
69415;BMP280;56608;43.530;-5.652;2023-04-06T02:35:33;101723.97;;;9.09
69415;BMP280;56608;43.530;-5.652;2023-04-06T02:36:33;101717.09;;;9.05
69415;BMP280;56608;43.530;-5.652;2023-04-06T02:37:35;101723.69;;;8.93
69415;BMP280;56608;43.530;-5.652;2023-04-06T02:38:36;101717.56;;;8.92
69415;BMP280;56608;43.530;-5.652;2023-04-06T02:39:38;101711.81;;;8.98
69415;BMP280;56608;43.530;-5.652;2023-04-06T02:40:39;101714.78;;;9.10
69415;BMP280;56608;43.530;-5.652;2023-04-06T02:41:41;101709.44;;;9.10
69415;BMP280;56608;43.530;-5.652;2023-04-06T02:42:43;101709.38;;;9.17
69415;BMP280;56608;43.530;-5.652;2023-04-06T02:43:44;101707.13;;;9.05
69415;BMP280;56608;43.530;-5.652;2023-04-06T02:44:46;101714.78;;;9.10
69415;BMP280;56608;43.530;-5.652;2023-04-06T02:45:47;101707.94;;;9.02
69415;BMP280;56608;43.530;-5.652;2023-04-06T02:46:48;101707.47;;;9.14
69415;BMP280;56608;43.530;-5.652;2023-04-06T02:47:50;101702.38;;;9.27
69415;BMP280;56608;43.530;-5.652;2023-04-06T02:48:52;101702.31;;;9.34
69415;BMP280;56608;43.530;-5.652;2023-04-06T02:49:53;101706.91;;;9.34
69415;BMP280;56608;43.530;-5.652;2023-04-06T02:50:54;101708.56;;;9.20
69415;BMP280;56608;43.530;-5.652;2023-04-06T02:51:56;101707.09;;;9.12
69415;BMP280;56608;43.530;-5.652;2023-04-06T02:52:58;101704.13;;;9.00
69415;BMP280;56608;43.530;-5.652;2023-04-06T02:53:59;101713.72;;;8.97
69415;BMP280;56608;43.530;-5.652;2023-04-06T02:55:00;101714.09;;;8.96
69415;BMP280;56608;43.530;-5.652;2023-04-06T02:56:02;101712.50;;;9.05
69415;BMP280;56608;43.530;-5.652;2023-04-06T02:57:03;101717.47;;;9.10
69415;BMP280;56608;43.530;-5.652;2023-04-06T02:58:05;101715.56;;;9.11
69415;BMP280;56608;43.530;-5.652;2023-04-06T02:59:06;101724.72;;;9.13
69415;BMP280;56608;43.530;-5.652;2023-04-06T03:00:08;101714.78;;;9.07
69415;BMP280;56608;43.530;-5.652;2023-04-06T03:01:10;101712.13;;;9.03
69415;BMP280;56608;43.530;-5.652;2023-04-06T03:02:12;101716.31;;;9.11
69415;BMP280;56608;43.530;-5.652;2023-04-06T03:03:13;101720.47;;;9.16
69415;BMP280;56608;43.530;-5.652;2023-04-06T03:04:14;101723.16;;;9.16
69415;BMP280;56608;43.530;-5.652;2023-04-06T03:05:16;101717.78;;;9.19
69415;BMP280;56608;43.530;-5.652;2023-04-06T03:06:20;101726.59;;;9.20
69415;BMP280;56608;43.530;-5.652;2023-04-06T03:07:21;101730.75;;;9.21
69415;BMP280;56608;43.530;-5.652;2023-04-06T03:08:23;101729.31;;;9.13
69415;BMP280;56608;43.530;-5.652;2023-04-06T03:09:24;101725.06;;;9.15
69415;BMP280;56608;43.530;-5.652;2023-04-06T03:10:26;101727.38;;;9.17
69415;BMP280;56608;43.530;-5.652;2023-04-06T03:11:27;101731.94;;;9.20
69415;BMP280;56608;43.530;-5.652;2023-04-06T03:12:28;101729.97;;;9.27
69415;BMP280;56608;43.530;-5.652;2023-04-06T03:13:30;101734.50;;;9.31
69415;BMP280;56608;43.530;-5.652;2023-04-06T03:14:30;101721.53;;;9.29
69415;BMP280;56608;43.530;-5.652;2023-04-06T03:15:32;101729.13;;;9.31
69415;BMP280;56608;43.530;-5.652;2023-04-06T03:16:34;101722.28;;;9.30
69415;BMP280;56608;43.530;-5.652;2023-04-06T03:17:35;101723.78;;;9.31
69415;BMP280;56608;43.530;-5.652;2023-04-06T03:18:37;101729.50;;;9.33
69415;BMP280;56608;43.530;-5.652;2023-04-06T03:19:38;101725.31;;;9.32
69415;BMP280;56608;43.530;-5.652;2023-04-06T03:20:40;101728.75;;;9.32
69415;BMP280;56608;43.530;-5.652;2023-04-06T03:21:41;101721.09;;;9.31
69415;BMP280;56608;43.530;-5.652;2023-04-06T03:22:42;101725.28;;;9.39
69415;BMP280;56608;43.530;-5.652;2023-04-06T03:23:42;101728.34;;;9.34
69415;BMP280;56608;43.530;-5.652;2023-04-06T03:24:44;101731.81;;;9.31
69415;BMP280;56608;43.530;-5.652;2023-04-06T03:25:46;101731.50;;;9.25
69415;BMP280;56608;43.530;-5.652;2023-04-06T03:26:47;101725.75;;;9.26
69415;BMP280;56608;43.530;-5.652;2023-04-06T03:27:49;101727.22;;;9.31
69415;BMP280;56608;43.530;-5.652;2023-04-06T03:28:50;101736.09;;;9.28
69415;BMP280;56608;43.530;-5.652;2023-04-06T03:29:52;101725.37;;;9.24
69415;BMP280;56608;43.530;-5.652;2023-04-06T03:30:53;101726.53;;;9.23
69415;BMP280;56608;43.530;-5.652;2023-04-06T03:31:54;101730.03;;;9.20
69415;BMP280;56608;43.530;-5.652;2023-04-06T03:32:56;101730.03;;;9.20
69415;BMP280;56608;43.530;-5.652;2023-04-06T03:33:57;101721.56;;;9.22
69415;BMP280;56608;43.530;-5.652;2023-04-06T03:35:00;101726.13;;;9.28
69415;BMP280;56608;43.530;-5.652;2023-04-06T03:36:01;101718.41;;;9.31
69415;BMP280;56608;43.530;-5.652;2023-04-06T03:37:03;101722.28;;;9.30
69415;BMP280;56608;43.530;-5.652;2023-04-06T03:38:04;101715.44;;;9.21
69415;BMP280;56608;43.530;-5.652;2023-04-06T03:39:05;101721.53;;;9.25
69415;BMP280;56608;43.530;-5.652;2023-04-06T03:40:07;101725.31;;;9.32
69415;BMP280;56608;43.530;-5.652;2023-04-06T03:41:07;101722.22;;;9.37
69415;BMP280;56608;43.530;-5.652;2023-04-06T03:42:09;101721.47;;;9.33
69415;BMP280;56608;43.530;-5.652;2023-04-06T03:43:11;101717.31;;;9.28
69415;BMP280;56608;43.530;-5.652;2023-04-06T03:44:12;101714.66;;;9.24
69415;BMP280;56608;43.530;-5.652;2023-04-06T03:45:14;101719.31;;;9.20
69415;BMP280;56608;43.530;-5.652;2023-04-06T03:46:14;101719.25;;;9.24
69415;BMP280;56608;43.530;-5.652;2023-04-06T03:47:16;101715.81;;;9.23
69415;BMP280;56608;43.530;-5.652;2023-04-06T03:48:17;101725.75;;;9.23
69415;BMP280;56608;43.530;-5.652;2023-04-06T03:49:19;101720.81;;;9.21
69415;BMP280;56608;43.530;-5.652;2023-04-06T03:50:20;101724.69;;;9.17
69415;BMP280;56608;43.530;-5.652;2023-04-06T03:51:22;101725.47;;;9.14
69415;BMP280;56608;43.530;-5.652;2023-04-06T03:52:22;101729.31;;;9.13
69415;BMP280;56608;43.530;-5.652;2023-04-06T03:53:24;101724.03;;;8.99
69415;BMP280;56608;43.530;-5.652;2023-04-06T03:54:26;101724.03;;;9.02
69415;BMP280;56608;43.530;-5.652;2023-04-06T03:55:27;101727.09;;;9.01
69415;BMP280;56608;43.530;-5.652;2023-04-06T03:56:29;101724.03;;;8.99
69415;BMP280;56608;43.530;-5.652;2023-04-06T03:57:30;101723.28;;;8.98
69415;BMP280;56608;43.530;-5.652;2023-04-06T03:58:31;101727.50;;;8.99
69415;BMP280;56608;43.530;-5.652;2023-04-06T03:59:33;101725.53;;;9.03
69415;BMP280;56608;43.530;-5.652;2023-04-06T04:00:33;101733.91;;;9.12
69415;BMP280;56608;43.530;-5.652;2023-04-06T04:01:35;101730.81;;;9.17
69415;BMP280;56608;43.530;-5.652;2023-04-06T04:02:37;101723.91;;;9.16
69415;BMP280;56608;43.530;-5.652;2023-04-06T04:03:38;101731.56;;;9.18
69415;BMP280;56608;43.530;-5.652;2023-04-06T04:04:39;101725.09;;;9.12
69415;BMP280;56608;43.530;-5.652;2023-04-06T04:05:40;101731.66;;;9.04
69415;BMP280;56608;43.530;-5.652;2023-04-06T04:06:42;101733.22;;;9.01
69415;BMP280;56608;43.530;-5.652;2023-04-06T04:07:43;101728.63;;;9.02
69415;BMP280;56608;43.530;-5.652;2023-04-06T04:08:45;101730.94;;;8.96
69415;BMP280;56608;43.530;-5.652;2023-04-06T04:09:46;101734.00;;;8.98
69415;BMP280;56608;43.530;-5.652;2023-04-06T04:10:47;101735.53;;;8.99
69415;BMP280;56608;43.530;-5.652;2023-04-06T04:11:49;101744.66;;;9.05
69415;BMP280;56608;43.530;-5.652;2023-04-06T04:12:49;101736.25;;;9.10
69415;BMP280;56608;43.530;-5.652;2023-04-06T04:13:51;101738.53;;;9.08
69415;BMP280;56608;43.530;-5.652;2023-04-06T04:14:52;101738.53;;;9.08
69415;BMP280;56608;43.530;-5.652;2023-04-06T04:15:54;101740.84;;;9.10
69415;BMP280;56608;43.530;-5.652;2023-04-06T04:16:55;101737.00;;;9.04
69415;BMP280;56608;43.530;-5.652;2023-04-06T04:17:57;101743.13;;;9.04
69415;BMP280;56608;43.530;-5.652;2023-04-06T04:18:58;101741.59;;;9.03
69415;BMP280;56608;43.530;-5.652;2023-04-06T04:20:00;101748.09;;;9.09
69415;BMP280;56608;43.530;-5.652;2023-04-06T04:21:01;101745.81;;;9.04
69415;BMP280;56608;43.530;-5.652;2023-04-06T04:22:03;101750.03;;;9.05
69415;BMP280;56608;43.530;-5.652;2023-04-06T04:23:07;101753.84;;;9.04
69415;BMP280;56608;43.530;-5.652;2023-04-06T04:24:09;101754.22;;;9.06
69415;BMP280;56608;43.530;-5.652;2023-04-06T04:25:09;101750.00;;;9.09
69415;BMP280;56608;43.530;-5.652;2023-04-06T04:26:11;101751.94;;;9.05
69415;BMP280;56608;43.530;-5.652;2023-04-06T04:27:13;101753.44;;;9.09
69415;BMP280;56608;43.530;-5.652;2023-04-06T04:28:13;101756.09;;;9.13
69415;BMP280;56608;43.530;-5.652;2023-04-06T04:29:15;101756.09;;;9.16
69415;BMP280;56608;43.530;-5.652;2023-04-06T04:30:17;101750.78;;;9.09
69415;BMP280;56608;43.530;-5.652;2023-04-06T04:31:19;101756.97;;;8.99
69415;BMP280;56608;43.530;-5.652;2023-04-06T04:32:22;101755.50;;;8.91
69415;BMP280;56608;43.530;-5.652;2023-04-06T04:33:28;101764.63;;;8.97
69415;BMP280;56608;43.530;-5.652;2023-04-06T04:34:29;101755.06;;;8.96
69415;BMP280;56608;43.530;-5.652;2023-04-06T04:35:31;101762.37;;;8.92
69415;BMP280;56608;43.530;-5.652;2023-04-06T04:36:32;101766.22;;;8.91
69415;BMP280;56608;43.530;-5.652;2023-04-06T04:37:33;101766.94;;;8.95
69415;BMP280;56608;43.530;-5.652;2023-04-06T04:38:36;101759.75;;;8.81
69415;BMP280;56608;43.530;-5.652;2023-04-06T04:39:36;101767.00;;;8.84
69415;BMP280;56608;43.530;-5.652;2023-04-06T04:40:38;101767.78;;;8.85
69415;BMP280;56608;43.530;-5.652;2023-04-06T04:41:40;101770.09;;;8.79
69415;BMP280;56608;43.530;-5.652;2023-04-06T04:42:41;101773.22;;;8.71
69415;BMP280;56608;43.530;-5.652;2023-04-06T04:43:42;101767.50;;;8.65
69415;BMP280;56608;43.530;-5.652;2023-04-06T04:44:44;101767.50;;;8.65
69415;BMP280;56608;43.530;-5.652;2023-04-06T04:45:45;101774.78;;;8.57
69415;BMP280;56608;43.530;-5.652;2023-04-06T04:46:46;101769.84;;;8.52
69415;BMP280;56608;43.530;-5.652;2023-04-06T04:47:48;101773.69;;;8.51
69415;BMP280;56608;43.530;-5.652;2023-04-06T04:48:49;101773.69;;;8.51
69415;BMP280;56608;43.530;-5.652;2023-04-06T04:49:50;101776.41;;;8.41
69415;BMP280;56608;43.530;-5.652;2023-04-06T04:50:52;101776.41;;;8.30
69415;BMP280;56608;43.530;-5.652;2023-04-06T04:51:53;101784.09;;;8.21
69415;BMP280;56608;43.530;-5.652;2023-04-06T04:52:54;101783.34;;;8.20
69415;BMP280;56608;43.530;-5.652;2023-04-06T04:53:56;101793.63;;;8.22
69415;BMP280;56608;43.530;-5.652;2023-04-06T04:54:57;101777.62;;;8.11
69415;BMP280;56608;43.530;-5.652;2023-04-06T04:55:58;101788.69;;;8.20
69415;BMP280;56608;43.530;-5.652;2023-04-06T04:57:00;101791.38;;;8.20
69415;BMP280;56608;43.530;-5.652;2023-04-06T04:58:01;101791.38;;;8.17
69415;BMP280;56608;43.530;-5.652;2023-04-06T04:59:03;101788.34;;;8.08
69415;BMP280;56608;43.530;-5.652;2023-04-06T05:00:05;101792.53;;;8.19
69415;BMP280;56608;43.530;-5.652;2023-04-06T05:01:07;101786.03;;;8.13
69415;BMP280;56608;43.530;-5.652;2023-04-06T05:02:09;101792.53;;;8.05
69415;BMP280;56608;43.530;-5.652;2023-04-06T05:03:18;101791.03;;;7.94
69415;BMP280;56608;43.530;-5.652;2023-04-06T05:04:22;101790.66;;;7.77
69415;BMP280;56608;43.530;-5.652;2023-04-06T05:05:23;101794.50;;;7.87
69415;BMP280;56608;43.530;-5.652;2023-04-06T05:06:24;101790.25;;;7.90
69415;BMP280;56608;43.530;-5.652;2023-04-06T05:07:29;101794.84;;;7.93
69415;BMP280;56608;43.530;-5.652;2023-04-06T05:08:31;101791.00;;;8.04
69415;BMP280;56608;43.530;-5.652;2023-04-06T05:09:31;101804.75;;;8.17
69415;BMP280;56608;43.530;-5.652;2023-04-06T05:10:34;101802.87;;;8.07
69415;BMP280;56608;43.530;-5.652;2023-04-06T05:11:36;101799.81;;;7.91
69415;BMP280;56608;43.530;-5.652;2023-04-06T05:12:37;101811.66;;;7.72
69415;BMP280;56608;43.530;-5.652;2023-04-06T05:13:39;101805.94;;;7.73
69415;BMP280;56608;43.530;-5.652;2023-04-06T05:14:41;101806.69;;;7.70
69415;BMP280;56608;43.530;-5.652;2023-04-06T05:15:42;101807.06;;;7.69
69415;BMP280;56608;43.530;-5.652;2023-04-06T05:16:44;101809.37;;;7.70
69415;BMP280;56608;43.530;-5.652;2023-04-06T05:17:45;101807.84;;;7.69
69415;BMP280;56608;43.530;-5.652;2023-04-06T05:18:47;101811.69;;;7.61
69415;BMP280;56608;43.530;-5.652;2023-04-06T05:19:49;101809.00;;;7.65
69415;BMP280;56608;43.530;-5.652;2023-04-06T05:20:51;101815.50;;;7.67
69415;BMP280;56608;43.530;-5.652;2023-04-06T05:21:52;101816.63;;;7.73
69415;BMP280;56608;43.530;-5.652;2023-04-06T05:22:54;101813.97;;;7.73
69415;BMP280;56608;43.530;-5.652;2023-04-06T05:23:55;101813.97;;;7.73
69415;BMP280;56608;43.530;-5.652;2023-04-06T05:24:57;101813.19;;;7.73
69415;BMP280;56608;43.530;-5.652;2023-04-06T05:25:58;101817.78;;;7.69
69415;BMP280;56608;43.530;-5.652;2023-04-06T05:26:59;101818.53;;;7.73
69415;BMP280;56608;43.530;-5.652;2023-04-06T05:28:01;101823.53;;;7.89
69415;BMP280;56608;43.530;-5.652;2023-04-06T05:29:03;101822.75;;;7.99
69415;BMP280;56608;43.530;-5.652;2023-04-06T05:30:05;101823.09;;;8.04
69415;BMP280;56608;43.530;-5.652;2023-04-06T05:31:07;101833.06;;;8.04
69415;BMP280;56608;43.530;-5.652;2023-04-06T05:32:08;101832.28;;;8.03
69415;BMP280;56608;43.530;-5.652;2023-04-06T05:33:10;101844.16;;;8.13
69415;BMP280;56608;43.530;-5.652;2023-04-06T05:34:11;101835.75;;;8.07
69415;BMP280;56608;43.530;-5.652;2023-04-06T05:35:13;101845.28;;;8.01
69415;BMP280;56608;43.530;-5.652;2023-04-06T05:36:15;101838.41;;;7.93
69415;BMP280;56608;43.530;-5.652;2023-04-06T05:37:16;101840.34;;;7.89
69415;BMP280;56608;43.530;-5.652;2023-04-06T05:38:18;101851.41;;;7.95
69415;BMP280;56608;43.530;-5.652;2023-04-06T05:39:19;101843.00;;;7.96
69415;BMP280;56608;43.530;-5.652;2023-04-06T05:40:21;101848.75;;;7.87
69415;BMP280;56608;43.530;-5.652;2023-04-06T05:41:23;101854.44;;;7.79
69415;BMP280;56608;43.530;-5.652;2023-04-06T05:42:23;101850.25;;;7.74
69415;BMP280;56608;43.530;-5.652;2023-04-06T05:43:24;101851.78;;;7.75
69415;BMP280;56608;43.530;-5.652;2023-04-06T05:44:26;101859.81;;;7.65
69415;BMP280;56608;43.530;-5.652;2023-04-06T05:45:27;101856.00;;;7.66
69415;BMP280;56608;43.530;-5.652;2023-04-06T05:46:28;101858.31;;;7.67
69415;BMP280;56608;43.530;-5.652;2023-04-06T05:47:30;101862.09;;;7.73
69415;BMP280;56608;43.530;-5.652;2023-04-06T05:48:31;101859.06;;;7.75